Time;durP1;ratioP1;P1;durP2;ratioP2;P2;SDS_P1;SDS_P2;PMS_P1;PMS_P2;Temp;Humidity;BMP_temperature;BMP_pressure;BME280_temperature;BME280_humidity;BME280_pressure;Samples;Min_cycle;Max_cycle;Signal;HPM_P1;HPM_P2
2024/01/27 00:01:11;;;;;;;13.73;3.00;;;;;;;7.43;59.53;100854.81;6215726;22;96671;-86
2024/01/27 00:03:36;;;;;;;12.23;2.58;;;;;;;7.66;59.57;100858.88;6216661;22;96945;-86
2024/01/27 00:06:02;;;;;;;12.70;2.58;;;;;;;7.56;59.63;100857.25;6240744;22;98408;-86
2024/01/27 00:08:28;;;;;;;10.75;3.15;;;;;;;7.71;59.18;100870.13;6215131;22;100173;-87
2024/01/27 00:10:53;;;;;;;9.85;2.50;;;;;;;7.68;59.10;100859.72;6241130;22;96665;-87
2024/01/27 00:13:19;;;;;;;10.93;2.70;;;;;;;7.65;59.35;100867.56;6216066;22;97262;-87
2024/01/27 00:15:44;;;;;;;9.57;3.15;;;;;;;7.55;59.06;100876.44;6215466;22;101039;-86
2024/01/27 00:18:10;;;;;;;10.25;2.05;;;;;;;7.69;59.65;100885.81;6241348;22;101799;-87
2024/01/27 00:20:37;;;;;;;9.95;2.58;;;;;;;7.74;59.22;100905.78;6215980;22;96926;-85
2024/01/27 00:23:03;;;;;;;16.25;3.25;;;;;;;7.57;59.21;100878.16;6242131;22;96787;-87
2024/01/27 00:25:29;;;;;;;12.43;2.80;;;;;;;7.60;58.87;100893.78;6215743;22;98280;-86
2024/01/27 00:27:55;;;;;;;11.07;3.00;;;;;;;7.52;58.32;100892.16;6215274;22;100153;-86
2024/01/27 00:30:20;;;;;;;12.35;3.42;;;;;;;7.55;59.18;100910.41;6190712;22;97176;-84
2024/01/27 00:32:46;;;;;;;12.15;2.88;;;;;;;7.54;59.20;100898.22;6215663;22;97112;-86
2024/01/27 00:35:14;;;;;;;14.43;3.25;;;;;;;7.40;59.37;100890.56;6189257;22;100805;-87
2024/01/27 00:37:40;;;;;;;9.75;2.42;;;;;;;7.57;59.24;100901.66;6240942;22;98020;-87
2024/01/27 00:40:12;;;;;;;10.73;2.90;;;;;;;7.56;59.21;100902.53;6216334;22;96866;-87
2024/01/27 00:42:38;;;;;;;;;;;;;;;7.60;59.14;100926.91;6215946;22;96781;-86
2024/01/27 00:45:04;;;;;;;11.05;2.35;;;;;;;7.33;58.98;100892.38;6242072;22;98488;-87
2024/01/27 00:47:30;;;;;;;10.02;3.00;;;;;;;7.56;58.50;100922.56;6214966;22;98367;-87
2024/01/27 00:49:56;;;;;;;9.27;2.75;;;;;;;7.36;58.48;100884.50;6242200;22;96878;-86
2024/01/27 00:52:22;;;;;;;7.10;2.20;;;;;;;7.55;58.47;100913.88;6215666;22;96782;-87
2024/01/27 00:54:47;;;;;;;11.07;2.78;;;;;;;7.55;58.45;100926.09;6241677;22;98023;-87
2024/01/27 00:57:13;;;;;;;11.85;2.80;;;;;;;7.61;58.16;100920.78;6214944;22;101064;-87
2024/01/27 00:59:39;;;;;;;13.00;2.47;;;;;;;7.44;58.22;100916.59;6215787;22;96676;-87
2024/01/27 01:02:04;;;;;;;11.48;2.92;;;;;;;7.50;57.86;100918.28;6215758;22;97174;-85
2024/01/27 01:04:30;;;;;;;13.35;3.15;;;;;;;7.54;57.71;100914.78;6189685;22;100441;-87
2024/01/27 01:06:56;;;;;;;19.23;3.35;;;;;;;7.33;57.64;100884.56;6191054;22;101230;-84
2024/01/27 01:09:21;;;;;;;11.05;2.30;;;;;;;7.39;57.34;100894.91;6247232;22;96651;-87
2024/01/27 01:11:47;;;;;;;15.10;3.13;;;;;;;7.33;57.88;100894.09;6194764;22;96973;-87
2024/01/27 01:14:13;;;;;;;11.35;3.03;;;;;;;7.36;57.48;100896.69;6220995;22;97307;-87
2024/01/27 01:16:40;;;;;;;16.27;4.40;;;;;;;7.20;57.64;100878.59;6220189;22;97175;-84
2024/01/27 01:19:05;;;;;;;13.13;3.15;;;;;;;7.34;57.32;100898.47;6246968;22;96674;-87
2024/01/27 01:21:31;;;;;;;12.02;2.95;;;;;;;7.19;56.88;100884.69;6220325;22;96851;-86
2024/01/27 01:23:57;;;;;;;12.48;3.17;;;;;;;7.22;57.30;100895.09;6194375;22;100593;-87
2024/01/27 01:26:23;;;;;;;18.60;2.97;;;;;;;7.12;57.46;100887.38;6247242;22;97827;-87
2024/01/27 01:28:50;;;;;;;19.02;3.33;;;;;;;7.12;57.91;100913.50;6196634;22;96633;-88
2024/01/27 01:31:16;;;;;;;14.70;3.40;;;;;;;7.18;57.86;100916.88;6247831;22;97389;-86
2024/01/27 01:33:42;;;;;;;17.13;3.53;;;;;;;7.19;57.62;100920.41;6221713;22;98089;-86
2024/01/27 01:36:07;;;;;;;12.48;3.08;;;;;;;7.20;57.71;100937.78;6195545;22;101098;-86
2024/01/27 01:38:33;;;;;;;11.05;3.05;;;;;;;7.11;58.20;100917.00;6221935;22;96647;-87
2024/01/27 01:40:58;;;;;;;15.48;3.03;;;;;;;7.13;57.94;100912.63;6248451;22;96673;-87
2024/01/27 01:43:24;;;;;;;15.02;2.83;;;;;;;7.21;58.02;100913.38;6222058;22;98054;-86
2024/01/27 01:45:50;;;;;;;11.13;2.70;;;;;;;7.26;57.24;100927.28;6196637;22;99878;-87
2024/01/27 01:48:16;;;;;;;12.57;3.15;;;;;;;7.46;57.37;100937.50;6221722;22;97205;-89
2024/01/27 01:50:42;;;;;;;16.08;3.85;;;;;;;7.44;57.47;100934.03;6248039;22;96706;-88
2024/01/27 01:53:07;;;;;;;13.73;2.97;;;;;;;7.42;57.80;100933.22;6247279;22;102864;-88
2024/01/27 01:55:34;;;;;;;13.70;2.80;;;;;;;7.25;57.94;100917.72;6221317;22;101512;-86
2024/01/27 01:57:59;;;;;;;12.63;3.63;;;;;;;7.37;57.53;100928.03;6221097;22;97146;-88
2024/01/27 02:00:25;;;;;;;21.77;4.10;;;;;;;7.29;57.48;100924.63;6247546;22;96842;-87
2024/01/27 02:02:50;;;;;;;11.98;2.85;;;;;;;7.12;57.87;100918.72;6195618;22;101550;-88
2024/01/27 02:05:16;;;;;;;15.07;3.10;;;;;;;7.10;58.15;100896.97;6221520;22;98426;-86
2024/01/27 02:07:41;;;;;;;12.20;2.38;;;;;;;7.10;57.97;100913.53;6195507;22;97076;-87
2024/01/27 02:10:13;;;;;;;14.57;2.78;;;;;;;6.91;57.64;100894.56;6222374;22;96721;-87
2024/01/27 02:12:39;;;;;;;13.32;2.92;;;;;;;6.89;57.95;100895.44;6220749;22;98100;-88
2024/01/27 02:15:04;;;;;;;14.00;2.42;;;;;;;7.04;57.92;100910.97;6221674;22;100363;-85
2024/01/27 02:17:30;;;;;;;13.43;2.50;;;;;;;6.92;57.65;100918.91;6246758;22;96618;-89
2024/01/27 02:19:55;;;;;;;12.10;2.25;;;;;;;6.92;58.09;100937.19;6248167;22;97129;-88
2024/01/27 02:22:21;;;;;;;11.32;2.28;;;;;;;6.84;58.74;100936.41;6195115;22;100674;-89
2024/01/27 02:24:47;;;;;;;10.27;2.58;;;;;;;6.89;58.33;100935.47;6247840;22;97895;-86
2024/01/27 02:27:12;;;;;;;11.85;2.78;;;;;;;6.92;57.99;100935.47;6221211;22;97113;-87
2024/01/27 02:29:38;;;;;;;15.57;3.40;;;;;;;6.78;58.27;100961.66;6196968;22;96783;-87
2024/01/27 02:32:04;;;;;;;14.25;2.88;;;;;;;6.71;58.26;100944.31;6246749;22;97299;-87
2024/01/27 02:34:29;;;;;;;19.35;3.67;;;;;;;6.49;58.62;100919.31;6195448;22;100499;-87
2024/01/27 02:36:55;;;;;;;12.90;2.80;;;;;;;6.71;58.64;100922.59;6220682;22;96885;-87
2024/01/27 02:39:21;;;;;;;12.27;3.20;;;;;;;6.99;58.10;100963.22;6247700;22;96726;-86
2024/01/27 02:41:47;;;;;;;18.50;2.92;;;;;;;6.88;58.35;100962.44;6221450;22;97786;-86
2024/01/27 02:44:12;;;;;;;14.13;2.47;;;;;;;6.79;57.88;100968.59;6221724;22;100979;-87
2024/01/27 02:46:38;;;;;;;14.93;2.70;;;;;;;6.74;58.65;100970.38;6221432;22;96652;-87
2024/01/27 02:49:03;;;;;;;11.02;2.70;;;;;;;6.51;58.21;100935.78;6248111;22;96577;-89
2024/01/27 02:51:29;;;;;;;17.10;2.90;;;;;;;6.82;58.32;100974.69;6221466;22;97538;-88
2024/01/27 02:53:54;;;;;;;16.13;2.45;;;;;;;6.86;58.00;100989.44;6247614;22;98093;-88
2024/01/27 02:56:20;;;;;;;16.33;3.00;;;;;;;6.68;58.17;100965.22;6195818;22;96748;-88
2024/01/27 02:58:45;;;;;;;13.55;2.38;;;;;;;6.82;57.54;100987.75;6221548;22;96875;-90
2024/01/27 03:01:12;;;;;;;18.60;3.65;;;;;;;6.84;57.50;100994.69;6246539;22;97291;-86
2024/01/27 03:03:38;;;;;;;16.08;3.40;;;;;;;6.71;57.20;100985.19;6221208;22;96639;-88
2024/01/27 03:06:04;;;;;;;10.02;2.70;;;;;;;6.83;57.09;101018.16;6246728;22;97217;-87
2024/01/27 03:08:29;;;;;;;17.20;4.07;;;;;;;6.85;56.99;101019.03;6246991;22;96945;-87
2024/01/27 03:10:55;;;;;;;13.82;2.40;;;;;;;6.66;57.16;101005.22;6195676;22;100561;-88
2024/01/27 03:13:21;;;;;;;11.75;2.28;;;;;;;6.62;56.77;100999.19;6221094;22;100343;-87
2024/01/27 03:15:47;;;;;;;15.68;2.92;;;;;;;6.92;57.00;101032.03;6247000;22;96697;-86
2024/01/27 03:18:12;;;;;;;10.13;2.50;;;;;;;6.80;57.12;101019.06;6196621;22;96742;-86
2024/01/27 03:20:37;;;;;;;15.30;2.50;;;;;;;6.88;56.30;101029.44;6195076;22;100778;-85
2024/01/27 03:23:03;;;;;;;13.93;2.67;;;;;;;6.67;56.77;101000.03;6221154;22;100171;-88
2024/01/27 03:25:29;;;;;;;14.05;2.65;;;;;;;6.83;56.54;101036.44;6196077;22;97054;-87
2024/01/27 03:27:55;;;;;;;11.27;2.88;;;;;;;6.80;56.42;101029.50;6221178;22;96724;-88
2024/01/27 03:30:20;;;;;;;19.67;2.78;;;;;;;6.63;56.60;101005.25;6247512;22;97483;-87
2024/01/27 03:32:46;;;;;;;14.48;2.90;;;;;;;6.82;56.57;101029.50;6220869;22;97792;-88
2024/01/27 03:35:12;;;;;;;10.18;2.20;;;;;;;6.97;56.23;101032.84;6195936;22;97206;-85
2024/01/27 03:37:37;;;;;;;17.77;2.85;;;;;;;6.91;55.97;101034.63;6246722;22;96830;-84
2024/01/27 03:40:03;;;;;;;10.90;2.55;;;;;;;6.94;56.09;101042.44;6221565;22;101397;-87
2024/01/27 03:42:29;;;;;;;12.57;3.13;;;;;;;7.03;55.69;101042.38;6220568;22;101281;-87
2024/01/27 03:44:54;;;;;;;16.35;2.80;;;;;;;6.87;56.11;101035.56;6196454;22;96991;-87
2024/01/27 03:47:20;;;;;;;12.10;3.45;;;;;;;6.92;55.94;101026.81;6194921;22;96683;-87
2024/01/27 03:49:45;;;;;;;14.35;2.38;;;;;;;6.92;55.75;101038.97;6195118;22;101275;-87
2024/01/27 03:52:11;;;;;;;11.98;2.50;;;;;;;6.82;55.99;101043.41;6194756;22;101669;-90
2024/01/27 03:54:39;;;;;;;17.00;2.67;;;;;;;6.75;55.80;101031.28;6247907;22;97297;-88
2024/01/27 03:57:05;;;;;;;14.98;3.40;;;;;;;6.90;55.87;101052.06;6245909;22;97061;-86
2024/01/27 03:59:30;;;;;;;12.57;2.60;;;;;;;6.93;55.73;101057.25;6221404;22;101275;-88
2024/01/27 04:01:56;;;;;;;12.27;2.53;;;;;;;6.80;55.55;101045.16;6220720;22;96741;-88
2024/01/27 04:04:21;;;;;;;12.18;2.53;;;;;;;6.92;55.33;101058.13;6195766;22;96642;-89
2024/01/27 04:06:47;;;;;;;15.23;3.17;;;;;;;6.72;55.13;101034.78;6220700;22;97220;-88
2024/01/27 04:09:13;;;;;;;11.65;2.65;;;;;;;6.96;55.44;101072.03;6220941;22;100663;-87
2024/01/27 04:11:39;;;;;;;18.25;3.05;;;;;;;7.02;55.22;101056.31;6220674;22;97233;-86
2024/01/27 04:14:06;;;;;;;12.23;3.22;;;;;;;6.86;55.34;101045.09;6247939;22;96667;-84
2024/01/27 04:16:31;;;;;;;18.45;2.85;;;;;;;6.89;55.18;101050.28;6195498;22;97003;-88
2024/01/27 04:18:57;;;;;;;15.52;2.60;;;;;;;6.91;55.09;101045.94;6221724;22;100228;-87
2024/01/27 04:21:22;;;;;;;18.88;3.20;;;;;;;6.85;55.11;101061.66;6220871;22;98293;-87
2024/01/27 04:23:48;;;;;;;11.88;2.55;;;;;;;6.80;55.73;101047.75;6274804;22;97155;-88
2024/01/27 04:26:14;;;;;;;11.82;2.42;;;;;;;6.62;56.03;101076.59;6195653;22;96838;-87
2024/01/27 04:28:39;;;;;;;14.48;3.05;;;;;;;6.72;56.11;101067.81;6246615;22;97911;-87
2024/01/27 04:31:05;;;;;;;14.05;2.70;;;;;;;6.47;56.54;101061.88;6195364;22;100098;-84
2024/01/27 04:33:30;;;;;;;14.10;3.38;;;;;;;6.48;56.50;101048.81;6247461;22;96676;-88
2024/01/27 04:35:56;;;;;;;16.15;3.58;;;;;;;6.54;56.63;101055.75;6220490;22;96876;-90
2024/01/27 04:38:21;;;;;;;15.85;3.20;;;;;;;6.67;56.79;101061.78;6220149;22;97500;-86
2024/01/27 04:40:48;;;;;;;15.48;3.10;;;;;;;6.71;56.13;101047.81;6221194;22;101233;-86
2024/01/27 04:43:18;;;;;;;13.70;2.22;;;;;;;6.62;56.53;101058.31;6220839;22;97163;-89
2024/01/27 04:45:44;;;;;;;16.00;4.03;;;;;;;6.66;56.61;101071.34;6220664;22;96639;-88
2024/01/27 04:48:09;;;;;;;12.10;2.75;;;;;;;6.40;56.19;101023.66;6220275;22;98027;-86
2024/01/27 04:50:35;;;;;;;10.95;2.75;;;;;;;6.58;56.42;101065.31;6246645;22;98438;-84
2024/01/27 04:53:01;;;;;;;9.68;3.13;;;;;;;6.54;56.61;101055.75;6247396;22;97115;-88
2024/01/27 04:55:27;;;;;;;11.52;2.75;;;;;;;6.43;56.84;101039.28;6221726;22;96810;-86
2024/01/27 04:57:53;;;;;;;17.02;3.08;;;;;;;6.51;56.57;101061.84;6245882;22;101264;-85
2024/01/27 05:00:19;;;;;;;13.55;2.55;;;;;;;6.46;56.70;101061.03;6220070;22;101178;-88
2024/01/27 05:02:45;;;;;;;15.43;2.80;;;;;;;6.53;56.80;101064.47;6246040;22;97021;-86
2024/01/27 05:05:11;;;;;;;9.63;2.40;;;;;;;6.44;56.54;101048.88;6195330;22;96750;-88
2024/01/27 05:07:38;;;;;;;10.57;2.33;;;;;;;6.49;56.46;101071.44;6219613;22;100863;-88
2024/01/27 05:10:03;;;;;;;14.18;3.72;;;;;;;6.50;56.44;101069.69;6221136;22;100432;-87
2024/01/27 05:12:29;;;;;;;13.07;2.70;;;;;;;6.45;56.48;101061.03;6220550;22;97092;-88
2024/01/27 05:14:55;;;;;;;9.77;2.38;;;;;;;6.57;56.42;101077.50;6221345;22;96751;-87
2024/01/27 05:17:20;;;;;;;16.20;3.22;;;;;;;6.51;55.98;101082.72;6220494;22;97913;-88
2024/01/27 05:19:45;;;;;;;17.65;3.08;;;;;;;6.41;56.19;101083.66;6221631;22;100066;-87
2024/01/27 05:22:11;;;;;;;18.50;3.65;;;;;;;6.40;56.44;101074.09;6220402;22;96690;-87
2024/01/27 05:24:37;;;;;;;17.67;3.38;;;;;;;6.24;56.81;101088.94;6221004;22;96721;-87
2024/01/27 05:27:02;;;;;;;11.18;2.10;;;;;;;6.26;56.95;101084.59;6193979;22;100945;-87
2024/01/27 05:29:28;;;;;;;12.98;2.65;;;;;;;6.29;56.61;101094.13;6220935;22;101437;-85
2024/01/27 05:31:54;;;;;;;14.63;2.90;;;;;;;6.32;56.22;101102.81;6194827;22;98340;-87
2024/01/27 05:34:20;;;;;;;8.45;2.90;;;;;;;6.30;56.77;101096.72;6220859;22;97004;-88
2024/01/27 05:36:47;;;;;;;11.38;2.40;;;;;;;6.34;56.62;101093.25;6218908;22;100209;-87
2024/01/27 05:39:12;;;;;;;13.80;2.92;;;;;;;6.19;56.62;101102.84;6220692;22;101919;-89
2024/01/27 05:41:38;;;;;;;13.95;2.70;;;;;;;6.11;57.12;101095.94;6220246;22;96668;-86
2024/01/27 05:44:03;;;;;;;15.40;3.03;;;;;;;6.07;57.30;101086.38;6221679;22;97062;-88
2024/01/27 05:46:29;;;;;;;15.65;2.80;;;;;;;6.06;57.04;101104.66;6193771;22;100892;-87
2024/01/27 05:48:57;;;;;;;14.50;3.17;;;;;;;6.11;57.02;101092.47;6220196;22;101134;-87
2024/01/27 05:51:23;;;;;;;8.82;2.30;;;;;;;6.03;56.91;101094.22;6245156;22;97263;-86
2024/01/27 05:53:49;;;;;;;13.30;3.10;;;;;;;5.97;57.29;101102.94;6194929;22;96700;-88
2024/01/27 05:56:16;;;;;;;14.88;3.30;;;;;;;6.00;56.91;101089.91;6194206;22;100023;-89
2024/01/27 05:58:41;;;;;;;11.65;2.72;;;;;;;5.86;56.65;101061.22;6246519;22;97808;-86
2024/01/27 06:01:08;;;;;;;15.35;2.90;;;;;;;6.05;56.67;101108.09;6220587;22;96776;-87
2024/01/27 06:03:35;;;;;;;14.63;2.50;;;;;;;6.00;57.00;101099.47;6221007;22;96756;-84
2024/01/27 06:06:01;;;;;;;10.38;2.63;;;;;;;6.19;56.67;101108.94;6244944;22;101119;-87
2024/01/27 06:08:26;;;;;;;12.13;2.55;;;;;;;6.18;56.47;101109.81;6245525;22;97641;-87
2024/01/27 06:10:51;;;;;;;22.73;3.53;;;;;;;5.87;56.72;101085.53;6195464;22;96932;-88
2024/01/27 06:13:17;;;;;;;11.68;2.92;;;;;;;6.02;56.95;101118.53;6247774;22;97306;-87
2024/01/27 06:15:43;;;;;;;11.95;2.28;;;;;;;6.02;56.94;101128.97;6246740;22;98294;-86
2024/01/27 06:18:08;;;;;;;17.77;3.58;;;;;;;6.03;56.96;101135.94;6247206;22;97543;-86
2024/01/27 06:20:33;;;;;;;21.75;4.35;;;;;;;6.01;56.88;101117.69;6248042;22;96958;-87
2024/01/27 06:22:59;;;;;;;16.52;2.75;;;;;;;6.12;56.69;101120.28;6221772;22;97216;-86
2024/01/27 06:25:24;;;;;;;13.15;2.50;;;;;;;5.96;56.81;101109.00;6247302;22;97890;-87
2024/01/27 06:27:50;;;;;;;12.30;2.90;;;;;;;6.22;56.89;101149.78;6195437;22;101100;-86
2024/01/27 06:30:16;;;;;;;11.00;3.10;;;;;;;6.06;57.31;101136.78;6247956;22;96650;-88
2024/01/27 06:32:42;;;;;;;13.57;2.83;;;;;;;5.87;57.03;101122.88;6247977;22;96940;-88
2024/01/27 06:35:08;;;;;;;18.08;3.67;;;;;;;5.97;57.55;101155.06;6222140;22;101345;-87
2024/01/27 06:37:34;;;;;;;16.50;2.90;;;;;;;5.93;57.53;101142.88;6221852;22;101129;-89
2024/01/27 06:39:59;;;;;;;8.63;2.47;;;;;;;6.08;57.56;101168.09;6222583;22;97143;-89
2024/01/27 06:42:24;;;;;;;14.88;3.85;;;;;;;6.11;57.45;101148.09;6275362;22;97190;-91
2024/01/27 06:44:50;;;;;;;18.40;2.75;;;;;;;6.05;57.38;101161.13;6247861;22;97874;-88
2024/01/27 06:47:16;;;;;;;11.27;3.05;;;;;;;6.10;57.50;101161.97;6247518;22;98294;-87
2024/01/27 06:49:41;;;;;;;18.02;3.33;;;;;;;6.10;57.33;101146.31;6196245;22;96689;-89
2024/01/27 06:52:07;;;;;;;12.25;3.05;;;;;;;5.99;57.77;101161.16;6246760;22;96892;-90
2024/01/27 06:54:32;;;;;;;14.90;3.33;;;;;;;6.03;57.37;101148.97;6196132;22;101311;-90
2024/01/27 06:57:01;;;;;;;15.25;3.05;;;;;;;5.83;57.57;101123.78;6244126;22;99438;-87
2024/01/27 06:59:26;;;;;;;12.20;2.85;;;;;;;5.79;58.02;101137.69;6248023;22;96587;-86
2024/01/27 07:01:52;;;;;;;10.23;2.22;;;;;;;5.80;57.95;101130.72;6247352;22;97039;-89
2024/01/27 07:04:17;;;;;;;11.32;2.63;;;;;;;5.67;58.25;101122.03;6220639;22;101056;-89
2024/01/27 07:06:44;;;;;;;14.95;2.40;;;;;;;5.80;58.07;101147.22;6246005;22;97834;-86
2024/01/27 07:09:09;;;;;;;18.90;3.28;;;;;;;5.76;58.20;101129.00;6216508;22;97025;-89
2024/01/27 07:11:35;;;;;;;21.08;3.53;;;;;;;5.62;58.53;101105.59;6190834;22;97048;-85
2024/01/27 07:14:02;;;;;;;10.68;2.95;;;;;;;5.91;58.06;101134.19;6216518;22;97925;-89
2024/01/27 07:16:28;;;;;;;17.50;3.47;;;;;;;5.93;58.33;101137.69;6241689;22;97727;-90
2024/01/27 07:18:53;;;;;;;16.13;4.13;;;;;;;5.89;58.07;101141.13;6216860;22;96643;-87
2024/01/27 07:21:19;;;;;;;14.68;2.90;;;;;;;6.13;57.81;101155.88;6242209;22;96791;-88
2024/01/27 07:23:44;;;;;;;19.45;2.60;;;;;;;5.90;58.12;101130.72;6215872;22;101723;-88
2024/01/27 07:26:11;;;;;;;16.13;3.03;;;;;;;5.70;58.31;101119.44;6215522;22;97757;-88
2024/01/27 07:28:37;;;;;;;11.05;2.30;;;;;;;6.08;58.33;101170.69;6216201;22;96806;-89
2024/01/27 07:31:03;;;;;;;14.23;2.63;;;;;;;6.04;57.69;101184.59;6191232;22;96767;-90
2024/01/27 07:33:29;;;;;;;19.43;3.43;;;;;;;5.86;58.62;101155.03;6216414;22;98380;-87
2024/01/27 07:35:54;;;;;;;11.68;2.75;;;;;;;5.95;58.42;101168.97;6215267;22;100976;-89
2024/01/27 07:38:20;;;;;;;13.45;3.45;;;;;;;5.84;58.08;101143.75;6215877;22;97250;-87
2024/01/27 07:40:46;;;;;;;18.17;4.68;;;;;;;6.04;57.97;101167.19;6242066;22;96794;-89
2024/01/27 07:43:11;;;;;;;13.77;5.00;;;;;;;6.08;57.92;101181.97;6190299;22;100754;-88
2024/01/27 07:45:36;;;;;;;16.25;3.33;;;;;;;5.83;58.05;101135.94;6242187;22;98306;-89
2024/01/27 07:48:02;;;;;;;15.60;2.70;;;;;;;6.01;58.41;101172.41;6241865;22;96690;-89
2024/01/27 07:50:28;;;;;;;17.30;4.17;;;;;;;5.98;57.86;101175.03;6242309;22;97388;-88
2024/01/27 07:52:53;;;;;;;14.37;2.80;;;;;;;6.01;58.37;101187.19;6187713;22;100964;-86
2024/01/27 07:55:19;;;;;;;13.43;2.75;;;;;;;5.88;58.16;101162.88;6215759;22;99761;-89
2024/01/27 07:57:45;;;;;;;15.48;2.58;;;;;;;6.01;58.07;101175.03;6216079;22;97121;-89
2024/01/27 08:00:10;;;;;;;12.75;3.75;;;;;;;5.98;57.66;101171.56;6216217;22;96687;-88
2024/01/27 08:02:36;;;;;;;17.90;3.85;;;;;;;5.92;57.97;101156.78;6243554;22;98010;-88
2024/01/27 08:05:03;;;;;;;19.85;3.60;;;;;;;6.02;58.03;101160.25;6214794;22;97254;-88
2024/01/27 08:07:29;;;;;;;12.73;2.58;;;;;;;6.02;58.07;101161.13;6241739;22;96672;-86
2024/01/27 08:09:56;;;;;;;13.43;3.38;;;;;;;6.24;58.44;101202.78;6216364;22;97174;-87
2024/01/27 08:12:22;;;;;;;19.20;3.95;;;;;;;6.16;58.22;101201.94;6242034;22;98088;-89
2024/01/27 08:14:47;;;;;;;10.98;2.80;;;;;;;6.16;58.01;101214.97;6241333;22;98183;-88
2024/01/27 08:17:13;;;;;;;17.95;4.03;;;;;;;6.17;58.32;101212.38;6189592;22;97284;-89
2024/01/27 08:19:39;;;;;;;15.32;2.85;;;;;;;6.09;58.18;101204.56;6190727;22;96820;-87
2024/01/27 08:22:04;;;;;;;16.77;4.07;;;;;;;6.22;58.16;101208.00;6242292;22;98421;-87
2024/01/27 08:24:30;;;;;;;15.70;3.05;;;;;;;6.03;58.15;101182.84;6241483;22;97868;-87
2024/01/27 08:26:55;;;;;;;16.27;3.55;;;;;;;6.15;58.34;101202.81;6215867;22;96643;-88
2024/01/27 08:29:21;;;;;;;16.52;3.47;;;;;;;6.14;57.96;101183.72;6215603;22;96731;-88
2024/01/27 08:31:46;;;;;;;15.82;4.25;;;;;;;6.19;57.89;101196.72;6241813;22;98053;-88
2024/01/27 08:34:14;;;;;;;14.15;3.17;;;;;;;6.26;57.66;101198.47;6215393;22;101522;-88
2024/01/27 08:36:40;;;;;;;17.45;5.85;;;;;;;6.39;57.71;101215.78;6189636;22;96742;-89
2024/01/27 08:39:07;;;;;;;19.27;3.50;;;;;;;6.21;57.49;101198.44;6215871;22;96837;-87
2024/01/27 08:41:33;;;;;;;15.25;3.20;;;;;;;6.41;57.40;101234.06;6240659;22;99375;-87
2024/01/27 08:43:59;;;;;;;17.85;3.15;;;;;;;6.35;57.89;101221.91;6241127;22;98864;-87
2024/01/27 08:46:24;;;;;;;11.13;2.45;;;;;;;6.44;57.68;101247.94;6241431;22;96944;-87
2024/01/27 08:48:50;;;;;;;22.73;4.05;;;;;;;6.29;58.02;101256.69;6215648;22;96709;-87
2024/01/27 08:51:16;;;;;;;18.92;5.60;;;;;;;6.38;57.57;101219.28;6241431;22;98071;-88
2024/01/27 08:53:48;;;;;;;18.10;3.90;;;;;;;6.52;57.44;101235.75;6215212;22;101490;-89
2024/01/27 08:56:15;;;;;;;10.73;2.60;;;;;;;6.62;57.56;101248.78;6191266;22;96678;-86
2024/01/27 08:58:40;;;;;;;11.70;2.85;;;;;;;6.56;57.29;101254.88;6241835;22;97194;-88
2024/01/27 09:01:08;;;;;;;11.88;2.67;;;;;;;6.61;56.74;101236.63;6241906;22;97665;-86
2024/01/27 09:03:34;;;;;;;15.35;3.35;;;;;;;6.58;57.12;101243.56;6240778;22;100893;-86
2024/01/27 09:05:59;;;;;;;19.33;3.95;;;;;;;6.61;57.03;101229.66;6240477;22;97159;-87
2024/01/27 09:08:25;;;;;;;15.05;3.45;;;;;;;6.73;56.69;101247.88;6215754;22;96877;-88
2024/01/27 09:10:51;;;;;;;13.98;3.45;;;;;;;6.57;56.75;101225.28;6241079;22;98558;-88
2024/01/27 09:13:16;;;;;;;18.52;2.85;;;;;;;6.63;56.98;101238.31;6215254;22;101122;-87
2024/01/27 09:15:42;;;;;;;15.65;3.15;;;;;;;6.64;56.92;101239.22;6215356;22;96671;-88
2024/01/27 09:18:08;;;;;;;10.80;2.85;;;;;;;6.70;56.34;101236.56;6215364;22;96764;-86
2024/01/27 09:20:33;;;;;;;14.02;3.33;;;;;;;6.69;56.03;101247.88;6188996;22;101563;-86
2024/01/27 09:22:59;;;;;;;14.10;2.95;;;;;;;6.72;56.61;101256.56;6241758;22;97171;-85
2024/01/27 09:25:25;;;;;;;18.73;3.60;;;;;;;6.69;56.76;101259.19;6240792;22;97028;-87
2024/01/27 09:27:53;;;;;;;14.85;3.33;;;;;;;6.63;56.49;101264.41;6240965;22;96643;-87
2024/01/27 09:30:18;;;;;;;14.48;3.13;;;;;;;6.66;56.44;101263.53;6214179;22;99922;-88
2024/01/27 09:32:44;;;;;;;13.20;2.67;;;;;;;6.70;56.68;101273.97;6241108;22;99078;-86
2024/01/27 09:35:09;;;;;;;20.58;3.22;;;;;;;6.73;56.44;101267.88;6215948;22;97145;-86
2024/01/27 09:37:35;;;;;;;11.25;2.97;;;;;;;6.60;56.12;101258.34;6215782;22;96986;-84
2024/01/27 09:40:02;;;;;;;15.30;4.22;;;;;;;6.61;56.14;101273.13;6215631;22;101462;-88
2024/01/27 09:42:28;;;;;;;15.07;4.68;;;;;;;6.53;56.57;101257.50;6190256;22;100463;-87
2024/01/27 09:44:54;;;;;;;19.30;4.47;;;;;;;6.65;56.27;101283.53;6214008;22;96751;-88
2024/01/27 09:47:21;;;;;;;12.50;2.95;;;;;;;6.70;56.29;101296.59;6216658;22;97237;-86
2024/01/27 09:49:47;;;;;;;13.60;3.13;;;;;;;6.51;56.17;101257.47;6186457;22;101138;-87
2024/01/27 09:52:13;;;;;;;13.80;3.08;;;;;;;6.83;56.06;101297.41;6213509;22;101086;-87
2024/01/27 09:54:40;;;;;;;15.75;2.70;;;;;;;6.67;56.02;101314.88;6187147;22;97266;-87
2024/01/27 09:57:06;;;;;;;12.73;2.83;;;;;;;6.62;56.18;101304.44;6213299;22;97158;-87
2024/01/27 09:59:33;;;;;;;12.57;2.72;;;;;;;6.71;56.39;101322.66;6213767;22;101398;-87
2024/01/27 10:01:59;;;;;;;13.95;2.90;;;;;;;6.88;56.02;101333.06;6187193;22;101178;-88
2024/01/27 10:04:25;;;;;;;12.90;3.90;;;;;;;7.01;55.53;101316.50;6214059;22;97212;-86
2024/01/27 10:06:50;;;;;;;12.90;3.13;;;;;;;7.07;55.61;101333.00;6213529;22;96882;-87
2024/01/27 10:09:16;;;;;;;10.25;3.03;;;;;;;6.93;55.61;101318.28;6217779;22;100259;-86
2024/01/27 10:11:45;;;;;;;14.32;3.22;;;;;;;6.88;55.51;101322.63;6218625;22;97464;-89
2024/01/27 10:14:11;;;;;;;10.25;2.67;;;;;;;7.06;55.48;101339.13;6192063;22;97027;-87
2024/01/27 10:16:44;;;;;;;13.52;2.55;;;;;;;6.97;55.65;101345.22;6192741;22;96811;-89
2024/01/27 10:19:20;;;;;;;13.80;3.00;;;;;;;6.98;55.86;101333.91;6218110;22;97167;-84
2024/01/27 10:21:46;;;;;;;13.38;3.45;;;;;;;7.20;55.35;101348.63;6218782;22;98255;-88
2024/01/27 10:24:12;;;;;;;16.65;3.08;;;;;;;6.98;55.34;101339.13;6243454;22;96722;-90
2024/01/27 10:26:37;;;;;;;20.02;3.75;;;;;;;7.24;55.40;101352.09;6244258;22;97273;-86
2024/01/27 10:29:03;;;;;;;19.15;3.30;;;;;;;7.31;55.00;101366.88;6192547;22;101634;-84
2024/01/27 10:31:30;;;;;;;16.80;3.58;;;;;;;7.41;54.69;101352.88;6216981;22;99982;-88
2024/01/27 10:33:56;;;;;;;15.20;3.60;;;;;;;7.24;54.83;101328.59;6192906;22;96712;-87
2024/01/27 10:36:22;;;;;;;16.98;3.13;;;;;;;7.42;54.83;101327.66;6217660;22;97139;-88
2024/01/27 10:38:48;;;;;;;9.90;2.78;;;;;;;7.43;54.87;101343.31;6218255;22;101875;-87
2024/01/27 10:41:27;;;;;;;21.20;4.25;;;;;;;7.48;55.15;101330.22;6217406;22;100892;-75
2024/01/27 10:43:53;;;;;;;13.05;3.65;;;;;;;7.56;54.97;101351.94;6241897;22;96713;-76
2024/01/27 10:46:22;;;;;;;18.23;4.22;;;;;;;7.48;54.96;101335.47;6216800;22;96712;-90
2024/01/27 10:48:52;;;;;;;24.25;3.47;;;;;;;7.61;54.28;101342.34;6243649;22;97112;-88
2024/01/27 10:51:22;;;;;;;13.02;3.90;;;;;;;7.61;54.44;101347.56;6217724;22;100561;-89
2024/01/27 10:53:49;;;;;;;18.52;4.32;;;;;;;7.52;53.81;101284.91;6218950;22;98517;-91
2024/01/27 10:56:15;;;;;;;15.88;3.65;;;;;;;7.45;54.03;101325.88;6218876;22;97107;-89
2024/01/27 10:58:41;;;;;;;16.17;3.60;;;;;;;7.52;54.52;101326.72;6243672;22;97764;-88
2024/01/27 11:01:13;;;;;;;13.73;3.35;;;;;;;7.51;53.99;101325.00;6218610;22;98388;-89
2024/01/27 11:03:39;;;;;;;13.40;3.47;;;;;;;7.46;53.59;101322.38;6219690;22;96637;-88
2024/01/27 11:06:08;;;;;;;17.20;4.18;;;;;;;7.46;54.32;101311.94;6218057;22;97246;-85
2024/01/27 11:08:34;;;;;;;12.52;3.40;;;;;;;7.58;54.51;101308.38;6218408;22;101219;-90
2024/01/27 11:11:00;;;;;;;14.35;3.80;;;;;;;7.89;54.17;101311.69;6244714;22;98325;-90
2024/01/27 11:13:27;;;;;;;12.65;3.25;;;;;;;8.19;53.42;101309.69;6218962;22;96712;-90
2024/01/27 11:15:53;;;;;;;16.10;3.15;;;;;;;8.25;53.49;101309.63;6219087;22;97131;-89
2024/01/27 11:18:20;;;;;;;19.05;3.72;;;;;;;8.23;53.47;101285.25;6193592;22;100178;-91